Time;durP1;ratioP1;P1;durP2;ratioP2;P2;SDS_P1;SDS_P2;PMS_P1;PMS_P2;Temp;Humidity;BMP_temperature;BMP_pressure;BME280_temperature;BME280_humidity;BME280_pressure;Samples;Min_cycle;Max_cycle;Signal;HPM_P1;HPM_P2
2023/08/28 00:00:30;;;;;;;2.03;1.30;;;;;;;23.04;nan;100153.03;4982069;28;20065;-78
2023/08/28 00:03:05;;;;;;;2.58;1.38;;;;;;;23.06;nan;100153.72;4988012;28;20041;-78
2023/08/28 00:05:31;;;;;;;4.85;1.33;;;;;;;23.06;nan;100155.53;4993187;28;20062;-78
2023/08/28 00:07:56;;;;;;;3.70;1.30;;;;;;;23.05;nan;100145.94;4980464;28;20784;-79
2023/08/28 00:10:22;;;;;;;1.20;1.10;;;;;;;23.05;nan;100143.28;4963479;28;20030;-78
2023/08/28 00:12:47;;;;;;;2.58;1.38;;;;;;;23.05;nan;100154.72;4978238;28;20163;-78
2023/08/28 00:15:13;;;;;;;2.35;1.50;;;;;;;23.05;nan;100143.28;4988777;28;20470;-78
2023/08/28 00:17:38;;;;;;;0.93;0.93;;;;;;;23.05;nan;100146.78;4981192;28;20284;-79
2023/08/28 00:20:07;;;;;;;2.42;1.20;;;;;;;23.06;nan;100144.97;4981845;28;20492;-78
2023/08/28 00:22:34;;;;;;;2.38;1.40;;;;;;;23.06;nan;100134.38;4982315;28;20056;-79
2023/08/28 00:24:59;;;;;;;3.88;1.20;;;;;;;23.06;nan;100126.41;4991087;28;20034;-78
2023/08/28 00:27:24;;;;;;;4.60;1.73;;;;;;;23.05;nan;100111.50;4981081;28;20070;-77
2023/08/28 00:29:50;;;;;;;4.80;1.38;;;;;;;23.06;nan;100115.81;4982787;28;20093;-78
2023/08/28 00:32:15;;;;;;;2.05;1.23;;;;;;;23.06;nan;100107.88;4983431;28;20200;-79
2023/08/28 00:34:40;;;;;;;2.05;1.33;;;;;;;23.06;nan;100107.88;4962567;28;20069;-79
2023/08/28 00:37:06;;;;;;;1.48;1.10;;;;;;;23.06;nan;100107.88;4983554;28;20040;-78
2023/08/28 00:39:31;;;;;;;2.83;1.05;;;;;;;23.06;nan;100113.19;4980159;28;20064;-79
2023/08/28 00:41:56;;;;;;;2.65;1.10;;;;;;;23.06;nan;100118.47;4981826;28;20144;-80
2023/08/28 00:44:22;;;;;;;2.75;1.30;;;;;;;23.06;nan;100121.13;4990005;28;20036;-79
2023/08/28 00:46:47;;;;;;;2.47;1.23;;;;;;;23.06;nan;100127.25;4986047;28;20038;-80
2023/08/28 00:49:12;;;;;;;2.78;1.27;;;;;;;23.07;nan;100133.38;4981116;28;20029;-80
2023/08/28 00:51:38;;;;;;;2.28;1.25;;;;;;;23.06;nan;100135.19;4982708;28;20034;-80
2023/08/28 00:54:04;;;;;;;2.40;1.20;;;;;;;23.06;nan;100127.25;4979171;28;20042;-78
2023/08/28 00:56:29;;;;;;;4.00;1.52;;;;;;;23.06;nan;100124.59;4980008;28;20026;-78
2023/08/28 00:58:55;;;;;;;3.88;1.17;;;;;;;23.04;nan;100118.63;4984645;28;20026;-79
2023/08/28 01:01:20;;;;;;;2.55;1.30;;;;;;;23.05;nan;100122.09;4984336;28;20124;-79
2023/08/28 01:03:46;;;;;;;2.17;1.10;;;;;;;23.04;nan;100128.38;4994294;28;20724;-80
2023/08/28 01:06:24;;;;;;;3.45;1.15;;;;;;;23.04;nan;100128.38;4981405;28;20069;-79
2023/08/28 01:09:06;;;;;;;3.38;1.20;;;;;;;23.02;nan;100128.50;4983469;28;20062;-79
2023/08/28 01:11:52;;;;;;;3.03;1.20;;;;;;;23.02;nan;100133.78;4985017;28;20089;-79
2023/08/28 01:14:28;;;;;;;1.73;1.42;;;;;;;23.01;nan;100142.72;4986915;28;20034;-79
2023/08/28 01:16:56;;;;;;;2.53;1.00;;;;;;;23.00;nan;100144.53;4983991;28;21296;-78
2023/08/28 01:19:28;;;;;;;4.53;1.40;;;;;;;23.01;nan;100143.56;4982442;28;20100;-78
2023/08/28 01:22:03;;;;;;;1.85;1.02;;;;;;;23.02;nan;100147.88;4984806;28;20083;-77
2023/08/28 01:24:30;;;;;;;4.95;1.45;;;;;;;23.00;nan;100139.22;4993250;28;20080;-77
2023/08/28 01:26:56;;;;;;;3.35;1.10;;;;;;;23.00;nan;100141.88;4982728;28;20054;-78
2023/08/28 01:29:26;;;;;;;1.08;0.98;;;;;;;23.01;nan;100143.56;4984139;28;20026;-79
2023/08/28 01:31:51;;;;;;;3.25;1.00;;;;;;;23.01;nan;100142.72;4983473;28;20038;-79
2023/08/28 01:34:17;;;;;;;2.58;1.33;;;;;;;23.00;nan;100130.47;4981176;28;20018;-79
2023/08/28 01:36:51;;;;;;;1.92;1.02;;;;;;;23.00;nan;100133.94;4983314;28;20030;-79
2023/08/28 01:39:31;;;;;;;2.70;1.13;;;;;;;23.00;nan;100138.41;4981758;28;20112;-78
2023/08/28 01:41:57;;;;;;;1.63;1.10;;;;;;;23.00;nan;100141.88;4966821;28;20049;-79
2023/08/28 01:44:24;;;;;;;1.58;1.08;;;;;;;23.01;nan;100146.19;4986064;28;20030;-79
2023/08/28 01:46:50;;;;;;;2.80;1.20;;;;;;;23.00;nan;100152.47;4985737;28;20120;-79
2023/08/28 01:49:15;;;;;;;2.95;1.10;;;;;;;23.00;nan;100163.06;4967655;28;20030;-79
2023/08/28 01:51:42;;;;;;;1.90;1.15;;;;;;;23.01;nan;100162.09;4967497;28;20077;-79
2023/08/28 01:54:07;;;;;;;1.15;1.00;;;;;;;23.00;nan;100163.06;4994631;28;20468;-79
2023/08/28 01:56:32;;;;;;;2.55;1.00;;;;;;;23.01;nan;100161.25;4985207;28;20049;-80
2023/08/28 01:58:58;;;;;;;3.45;1.30;;;;;;;23.00;nan;100146.34;4982073;28;20592;-79
2023/08/28 02:04:46;;;;;;;1.52;0.98;;;;;;;22.99;nan;100149.97;4981666;28;20099;-79
2023/08/28 02:07:11;;;;;;;2.10;1.13;;;;;;;22.98;nan;100149.13;4983146;28;20045;-80
2023/08/28 02:09:36;;;;;;;1.25;0.82;;;;;;;22.99;nan;100150.81;4982679;28;20117;-79
2023/08/28 02:12:02;;;;;;;1.45;1.20;;;;;;;22.98;nan;100149.13;4983350;28;20237;-79
2023/08/28 02:14:27;;;;;;;1.13;1.02;;;;;;;22.99;nan;100144.69;4993902;28;20190;-79
2023/08/28 02:16:53;;;;;;;0.80;0.80;;;;;;;22.98;nan;100149.13;4986120;28;20134;-79
2023/08/28 02:19:18;;;;;;;2.08;1.02;;;;;;;22.98;nan;100151.78;4965152;28;20063;-79
2023/08/28 02:21:43;;;;;;;1.27;1.02;;;;;;;22.98;nan;100151.78;4981823;28;20053;-79
2023/08/28 02:24:59;;;;;;;3.65;1.40;;;;;;;22.99;nan;100149.97;4993074;28;20038;-79
2023/08/28 02:27:24;;;;;;;0.90;0.88;;;;;;;22.98;nan;100149.13;4981811;28;20058;-80
2023/08/28 02:29:50;;;;;;;2.80;1.10;;;;;;;22.98;nan;100133.25;4966506;28;20104;-79
2023/08/28 02:32:15;;;;;;;0.95;0.95;;;;;;;22.98;nan;100130.59;4982092;28;20034;-79
2023/08/28 02:34:42;;;;;;;1.10;1.00;;;;;;;22.97;nan;100123.66;4979281;28;20037;-79
2023/08/28 02:37:07;;;;;;;2.95;0.95;;;;;;;22.98;nan;100125.31;4981278;28;21418;-77
2023/08/28 02:39:33;;;;;;;2.22;1.30;;;;;;;22.98;nan;100121.81;4982459;28;20026;-78
2023/08/28 02:41:58;;;;;;;1.30;1.20;;;;;;;22.98;nan;100117.38;4982913;28;20030;-77
2023/08/28 02:44:23;;;;;;;2.47;1.20;;;;;;;22.97;nan;100109.53;4983242;28;20033;-77
2023/08/28 02:46:48;;;;;;;2.17;1.10;;;;;;;22.99;nan;100102.31;4987339;28;20030;-78
2023/08/28 02:49:14;;;;;;;1.83;1.20;;;;;;;22.98;nan;100093.53;4980110;28;20069;-78
2023/08/28 02:51:39;;;;;;;0.80;0.80;;;;;;;22.98;nan;100088.25;4982920;28;20549;-78
2023/08/28 02:54:05;;;;;;;1.55;1.17;;;;;;;22.99;nan;100086.44;4990852;28;20071;-78
2023/08/28 02:56:40;;;;;;;1.33;0.93;;;;;;;22.99;nan;100092.56;4980751;28;20034;-78
2023/08/28 02:59:05;;;;;;;1.83;0.90;;;;;;;23.01;nan;100089.75;4980954;28;20140;-78
2023/08/28 03:01:37;;;;;;;2.88;1.10;;;;;;;23.00;nan;100086.28;4982083;28;20770;-78
2023/08/28 03:04:05;;;;;;;1.00;1.00;;;;;;;23.01;nan;100095.06;4994169;28;20029;-78
2023/08/28 03:06:35;;;;;;;6.50;1.13;;;;;;;23.00;nan;100086.28;4979137;28;20454;-78
2023/08/28 03:09:00;;;;;;;3.42;1.35;;;;;;;22.99;nan;100089.91;4982858;28;20030;-78
2023/08/28 03:11:25;;;;;;;0.88;0.88;;;;;;;23.01;nan;100100.34;4982044;28;20030;-78
2023/08/28 03:13:51;;;;;;;0.82;0.80;;;;;;;23.01;nan;100100.34;4988873;28;20033;-78
2023/08/28 03:16:16;;;;;;;2.17;1.02;;;;;;;23.00;nan;100102.16;4967240;28;20034;-78
2023/08/28 03:18:42;;;;;;;1.13;0.90;;;;;;;23.00;nan;100103.97;4982017;28;20038;-78
2023/08/28 03:21:07;;;;;;;1.70;0.88;;;;;;;22.99;nan;100089.91;4980908;28;20621;-78
2023/08/28 03:23:32;;;;;;;3.80;1.10;;;;;;;23.00;nan;100088.94;4977700;28;20079;-78
2023/08/28 03:29:33;;;;;;;1.00;0.90;;;;;;;22.99;nan;100081.97;4977189;28;20477;-77
2023/08/28 03:31:58;;;;;;;1.52;0.77;;;;;;;22.98;nan;100067.06;4982470;28;20038;-78
2023/08/28 03:34:24;;;;;;;1.33;1.23;;;;;;;22.98;nan;100064.41;4995676;28;20057;-78
2023/08/28 03:36:49;;;;;;;1.38;0.93;;;;;;;22.98;nan;100061.78;4985975;28;20034;-78
2023/08/28 03:39:14;;;;;;;2.75;1.15;;;;;;;23.00;nan;100066.91;4982342;28;20046;-78
2023/08/28 03:41:40;;;;;;;1.73;0.90;;;;;;;23.00;nan;100064.28;4965333;28;20041;-78
2023/08/28 03:44:05;;;;;;;2.25;1.05;;;;;;;23.00;nan;100062.47;4987357;28;20905;-78
2023/08/28 03:46:30;;;;;;;2.00;1.00;;;;;;;22.99;nan;100060.78;4988458;28;20589;-78
2023/08/28 03:48:56;;;;;;;2.30;0.95;;;;;;;22.99;nan;100055.50;4982767;28;20022;-78
2023/08/28 03:51:21;;;;;;;1.77;1.00;;;;;;;22.99;nan;100054.66;4983230;28;20040;-78
2023/08/28 03:53:46;;;;;;;1.08;0.98;;;;;;;22.99;nan;100057.31;4977968;28;20030;-78
2023/08/28 03:56:12;;;;;;;0.90;0.90;;;;;;;22.98;nan;100058.28;4988109;28;20740;-77
2023/08/28 03:58:37;;;;;;;1.83;1.17;;;;;;;22.97;nan;100056.59;4983357;28;20072;-77
2023/08/28 04:04:27;;;;;;;1.77;0.90;;;;;;;22.97;nan;100056.59;4995610;28;20143;-77
2023/08/28 04:06:52;;;;;;;3.00;1.00;;;;;;;22.97;nan;100059.25;4986688;28;20107;-77
2023/08/28 04:09:18;;;;;;;2.17;1.00;;;;;;;22.96;nan;100055.75;4982262;28;20021;-77
2023/08/28 04:11:43;;;;;;;0.80;0.80;;;;;;;22.97;nan;100054.81;4982253;28;20211;-77
2023/08/28 04:14:09;;;;;;;2.33;0.90;;;;;;;22.96;nan;100054.94;4980178;28;20026;-77
2023/08/28 04:16:34;;;;;;;2.25;0.85;;;;;;;22.97;nan;100057.47;4985358;28;20037;-78
2023/08/28 04:18:59;;;;;;;0.80;0.80;;;;;;;22.96;nan;100055.75;4979448;28;20042;-77
2023/08/28 04:21:34;;;;;;;1.35;1.10;;;;;;;22.96;nan;100055.75;4979280;28;20038;-78
2023/08/28 04:23:59;;;;;;;1.10;1.00;;;;;;;22.96;nan;100066.34;4980954;28;20853;-77
2023/08/28 04:29:47;;;;;;;1.27;0.80;;;;;;;22.96;nan;100074.28;4973770;28;20224;-76
2023/08/28 04:32:12;;;;;;;0.85;0.85;;;;;;;22.97;nan;100078.63;4985599;28;20034;-78
2023/08/28 04:34:37;;;;;;;1.40;1.10;;;;;;;22.96;nan;100076.94;4989606;28;20453;-78
2023/08/28 04:37:03;;;;;;;1.10;1.00;;;;;;;22.98;nan;100080.31;4984647;28;20037;-78
2023/08/28 04:39:28;;;;;;;1.42;1.05;;;;;;;22.99;nan;100076.69;4983464;28;20769;-78
2023/08/28 04:41:54;;;;;;;0.98;0.80;;;;;;;22.99;nan;100075.84;4985127;28;20026;-78
2023/08/28 04:44:20;;;;;;;1.80;0.80;;;;;;;22.99;nan;100075.84;4989503;28;20030;-77
2023/08/28 04:46:48;;;;;;;1.77;0.80;;;;;;;22.97;nan;100068.03;4990007;28;20054;-79
2023/08/28 04:49:15;;;;;;;2.43;1.00;;;;;;;22.98;nan;100067.06;4985375;28;20105;-77
2023/08/28 04:51:40;;;;;;;0.80;0.80;;;;;;;22.98;nan;100069.72;4982821;28;20042;-79
2023/08/28 04:54:06;;;;;;;1.98;0.88;;;;;;;22.97;nan;100073.34;4985917;28;20878;-79
2023/08/28 04:56:37;;;;;;;2.83;1.17;;;;;;;22.96;nan;100066.34;4985919;28;20042;-79
2023/08/28 04:59:03;;;;;;;1.48;0.90;;;;;;;22.96;nan;100066.34;4984046;28;20026;-79
2023/08/28 05:01:29;;;;;;;2.25;0.90;;;;;;;22.96;nan;100062.88;4984356;28;20552;-77
2023/08/28 05:03:54;;;;;;;4.25;1.02;;;;;;;22.96;nan;100060.22;4982442;28;20034;-78
2023/08/28 05:06:20;;;;;;;1.13;0.80;;;;;;;22.95;nan;100058.56;4989453;28;20372;-78
2023/08/28 05:08:45;;;;;;;1.05;1.00;;;;;;;22.95;nan;100069.13;4984626;28;20141;-78
2023/08/28 05:11:13;;;;;;;1.38;0.80;;;;;;;22.94;nan;100057.72;4985250;28;20125;-77
2023/08/28 05:13:38;;;;;;;1.10;0.98;;;;;;;22.94;nan;100057.72;4993562;28;20034;-78
2023/08/28 05:16:03;;;;;;;1.90;0.70;;;;;;;22.93;nan;100064.00;4993367;28;20061;-79
2023/08/28 05:18:29;;;;;;;1.83;1.05;;;;;;;22.92;nan;100059.69;4986654;28;20061;-79
2023/08/28 05:20:54;;;;;;;1.80;0.80;;;;;;;22.92;nan;100066.78;4985701;28;20030;-79
2023/08/28 05:23:25;;;;;;;5.03;0.90;;;;;;;22.91;nan;100054.50;4988091;28;20113;-79
2023/08/28 05:25:51;;;;;;;2.00;0.90;;;;;;;22.90;nan;100060.78;4975709;28;20072;-77
2023/08/28 05:28:17;;;;;;;1.85;0.90;;;;;;;22.90;nan;100063.44;4983611;28;20026;-77
2023/08/28 05:30:42;;;;;;;1.85;0.98;;;;;;;22.90;nan;100053.66;4983834;28;20453;-77
2023/08/28 05:33:07;;;;;;;4.20;0.95;;;;;;;22.90;nan;100053.66;4990290;28;20068;-76
2023/08/28 05:35:32;;;;;;;2.55;1.00;;;;;;;22.93;nan;100061.34;4983768;28;20058;-76
2023/08/28 05:37:58;;;;;;;3.92;1.40;;;;;;;22.85;nan;100062.97;4984092;28;20156;-76
2023/08/28 05:40:23;;;;;;;3.05;1.45;;;;;;;22.37;nan;100064.56;4980754;28;20083;-77
2023/08/28 05:42:48;;;;;;;2.13;1.30;;;;;;;21.84;nan;100078.00;4989827;28;20026;-77
2023/08/28 05:45:14;;;;;;;3.35;1.38;;;;;;;21.59;nan;100066.03;4988201;28;20112;-77
2023/08/28 05:47:40;;;;;;;1.40;1.30;;;;;;;21.41;nan;100070.22;4984798;28;21430;-76
2023/08/28 05:50:06;;;;;;;2.30;1.75;;;;;;;21.23;nan;100072.56;4984357;28;20026;-77
2023/08/28 05:52:32;;;;;;;3.97;1.70;;;;;;;21.08;nan;100076.47;4986522;28;20044;-76
2023/08/28 05:54:57;;;;;;;2.15;1.52;;;;;;;21.11;nan;100081.50;4998009;28;20025;-76
2023/08/28 05:57:23;;;;;;;3.97;1.95;;;;;;;20.95;nan;100081.09;4982390;28;20062;-76
2023/08/28 05:59:50;;;;;;;1.60;1.40;;;;;;;20.77;nan;100086.91;4984540;28;20172;-76
2023/08/28 06:02:15;;;;;;;2.28;1.45;;;;;;;20.81;nan;100085.69;4985367;28;20087;-76
2023/08/28 06:04:45;;;;;;;2.25;1.55;;;;;;;20.85;nan;100081.84;4980047;28;20815;-76
2023/08/28 06:07:10;;;;;;;1.92;1.70;;;;;;;20.72;nan;100081.16;4981614;28;20026;-76
2023/08/28 06:09:35;;;;;;;4.10;1.90;;;;;;;20.86;nan;100083.50;4984055;28;20192;-77
2023/08/28 06:12:01;;;;;;;4.72;2.13;;;;;;;21.25;nan;100089.13;4984861;28;20281;-77
2023/08/28 06:14:27;;;;;;;5.50;1.50;;;;;;;21.67;nan;100094.44;4991794;28;20103;-77
2023/08/28 06:16:52;;;;;;;2.10;1.27;;;;;;;21.84;nan;100096.50;4984037;28;20038;-78
2023/08/28 06:19:18;;;;;;;4.43;1.30;;;;;;;21.93;nan;100103.63;4985224;28;20288;-78
2023/08/28 06:21:45;;;;;;;5.45;1.50;;;;;;;22.01;nan;100104.75;4984136;28;20087;-77
2023/08/28 06:24:11;;;;;;;4.20;1.60;;;;;;;22.07;nan;100109.53;4996394;28;20041;-76
2023/08/28 06:26:37;;;;;;;3.33;1.20;;;;;;;22.11;nan;100103.03;4986004;28;20021;-77
2023/08/28 06:29:03;;;;;;;3.80;1.58;;;;;;;22.14;nan;100098.31;4984321;28;20050;-76
2023/08/28 06:31:29;;;;;;;3.13;1.33;;;;;;;22.17;nan;100092.75;4983979;28;20169;-76
2023/08/28 06:33:54;;;;;;;2.63;1.50;;;;;;;22.15;nan;100092.06;4993008;28;21736;-77
2023/08/28 06:36:20;;;;;;;2.70;1.40;;;;;;;22.15;nan;100080.66;4982810;28;20034;-77
2023/08/28 06:38:48;;;;;;;2.95;1.70;;;;;;;22.15;nan;100075.38;4983441;28;20054;-77
2023/08/28 06:41:14;;;;;;;2.17;1.88;;;;;;;22.16;nan;100085.81;4984086;28;20034;-78
2023/08/28 06:43:39;;;;;;;3.08;1.33;;;;;;;22.17;nan;100082.19;4990826;28;20041;-77
2023/08/28 06:46:04;;;;;;;2.08;1.48;;;;;;;22.16;nan;100071.75;4986899;28;20077;-76
2023/08/28 06:48:29;;;;;;;1.98;1.38;;;;;;;22.16;nan;100066.47;4983783;28;20116;-77
2023/08/28 06:50:56;;;;;;;1.50;1.20;;;;;;;22.17;nan;100057.53;4983466;28;20114;-77
2023/08/28 06:53:22;;;;;;;2.25;1.48;;;;;;;22.18;nan;100048.66;4987740;28;20078;-78
2023/08/28 06:55:47;;;;;;;2.33;1.20;;;;;;;22.18;nan;100038.94;4990273;28;20801;-77
2023/08/28 06:58:12;;;;;;;1.25;1.13;;;;;;;22.17;nan;100029.28;4981055;28;20116;-77
2023/08/28 07:00:38;;;;;;;3.80;1.30;;;;;;;22.18;nan;100031.00;4981723;28;20117;-77
2023/08/28 07:03:03;;;;;;;2.97;1.30;;;;;;;22.18;nan;100028.34;4987837;28;20034;-78
2023/08/28 07:05:28;;;;;;;1.88;1.00;;;;;;;22.21;nan;100032.53;4989211;28;20030;-77
2023/08/28 07:07:55;;;;;;;3.22;1.40;;;;;;;22.19;nan;100034.47;4980702;28;20054;-77
2023/08/28 07:10:20;;;;;;;5.47;1.25;;;;;;;22.20;nan;100030.84;4982449;28;20769;-78
2023/08/28 07:12:46;;;;;;;1.20;1.10;;;;;;;22.20;nan;100033.50;4981476;28;20026;-78
2023/08/28 07:15:12;;;;;;;1.95;1.25;;;;;;;22.20;nan;100028.22;4983162;28;20640;-78
2023/08/28 07:17:37;;;;;;;2.40;1.27;;;;;;;22.22;nan;100036.84;4982962;28;20030;-77
2023/08/28 07:20:04;;;;;;;1.13;1.00;;;;;;;22.20;nan;100033.50;4983359;28;20034;-78
2023/08/28 07:22:30;;;;;;;3.35;1.20;;;;;;;22.20;nan;100028.22;4984919;28;20037;-77
2023/08/28 07:24:56;;;;;;;1.30;1.20;;;;;;;22.20;nan;100014.97;4978756;28;20088;-77
2023/08/28 07:27:21;;;;;;;2.15;1.20;;;;;;;22.20;nan;100018.47;4981465;28;20061;-77
2023/08/28 07:29:46;;;;;;;1.95;1.02;;;;;;;22.22;nan;100018.31;4982307;28;20053;-77
2023/08/28 07:32:12;;;;;;;1.25;1.00;;;;;;;22.23;nan;100012.06;4979037;28;20499;-78
2023/08/28 07:34:37;;;;;;;1.65;1.20;;;;;;;22.23;nan;100004.13;4990716;28;20801;-77
2023/08/28 07:37:04;;;;;;;1.85;1.23;;;;;;;22.23;nan;100002.31;4984583;28;20088;-77
2023/08/28 07:39:29;;;;;;;2.58;1.20;;;;;;;22.23;nan;100002.31;4981060;28;20046;-78
2023/08/28 07:41:56;;;;;;;2.03;1.25;;;;;;;22.22;nan;100023.59;4981434;28;20038;-77
2023/08/28 07:44:22;;;;;;;1.58;1.05;;;;;;;22.25;nan;100033.09;4994995;28;20591;-78
2023/08/28 07:46:47;;;;;;;1.48;1.23;;;;;;;22.23;nan;100041.13;4985471;28;20029;-78
2023/08/28 07:49:13;;;;;;;1.65;1.30;;;;;;;22.24;nan;100042.84;4979361;28;20120;-77
2023/08/28 07:51:38;;;;;;;1.25;1.00;;;;;;;22.23;nan;100036.69;4981660;28;20030;-77
2023/08/28 07:54:03;;;;;;;1.88;1.33;;;;;;;22.25;nan;100038.38;4977019;28;20026;-78
2023/08/28 07:56:29;;;;;;;2.55;1.25;;;;;;;22.24;nan;100040.19;4984457;28;20042;-76
2023/08/28 07:58:54;;;;;;;2.13;1.10;;;;;;;22.22;nan;100042.13;4964654;28;20148;-76
2023/08/28 08:01:19;;;;;;;1.48;1.17;;;;;;;22.23;nan;100035.84;4979651;28;20065;-76
2023/08/28 08:03:45;;;;;;;1.02;0.90;;;;;;;22.23;nan;100036.69;4991798;28;20129;-77
2023/08/28 08:06:10;;;;;;;1.40;1.05;;;;;;;22.22;nan;100040.31;4991136;28;20832;-76
2023/08/28 08:08:36;;;;;;;1.70;0.90;;;;;;;22.22;nan;100044.75;4986366;28;20034;-77
2023/08/28 08:11:01;;;;;;;1.20;1.05;;;;;;;22.25;nan;100028.63;4986476;28;20060;-77
2023/08/28 08:13:27;;;;;;;3.38;1.38;;;;;;;22.27;nan;100015.28;4991781;28;20049;-77
2023/08/28 08:15:52;;;;;;;2.05;1.23;;;;;;;22.27;nan;100013.47;4991223;28;20093;-77
2023/08/28 08:18:17;;;;;;;2.17;1.30;;;;;;;22.28;nan;100022.22;4985272;28;20550;-77
2023/08/28 08:20:43;;;;;;;0.90;0.90;;;;;;;22.28;nan;100030.16;4985473;28;20121;-76
2023/08/28 08:23:09;;;;;;;1.30;1.20;;;;;;;22.26;nan;100035.59;4990352;28;20030;-78
2023/08/28 08:25:35;;;;;;;1.30;1.20;;;;;;;22.30;nan;100037.00;4987814;28;20041;-76
2023/08/28 08:28:02;;;;;;;1.20;1.10;;;;;;;22.33;nan;100047.28;4968260;28;20026;-77
2023/08/28 08:30:28;;;;;;;2.05;1.10;;;;;;;22.34;nan;100046.31;4985640;28;20050;-78
2023/08/28 08:32:53;;;;;;;1.65;0.98;;;;;;;22.35;nan;100049.81;4986301;28;20084;-77
2023/08/28 08:35:18;;;;;;;1.05;1.05;;;;;;;22.35;nan;100050.66;4992606;28;20034;-79
2023/08/28 08:37:45;;;;;;;1.30;1.20;;;;;;;22.34;nan;100053.41;4986018;28;20035;-80
2023/08/28 08:40:13;;;;;;;1.30;1.08;;;;;;;22.33;nan;100047.28;4986426;28;20599;-81
2023/08/28 08:42:38;;;;;;;1.75;1.02;;;;;;;22.31;nan;100051.06;4988373;28;20036;-79
2023/08/28 08:45:04;;;;;;;2.30;1.17;;;;;;;22.28;nan;100053.97;4995858;28;20549;-79
2023/08/28 08:47:30;;;;;;;1.83;1.38;;;;;;;22.27;nan;100036.44;4987049;28;20029;-79
2023/08/28 08:49:58;;;;;;;1.35;1.13;;;;;;;22.26;nan;100051.47;4985945;28;20393;-79
2023/08/28 08:52:24;;;;;;;1.48;1.05;;;;;;;22.24;nan;100061.34;4989112;28;20440;-78
2023/08/28 08:54:55;;;;;;;2.40;1.40;;;;;;;22.22;nan;100071.19;4995216;28;20101;-79
2023/08/28 08:57:37;;;;;;;1.38;1.20;;;;;;;22.20;nan;100067.88;4968326;28;20479;-79
2023/08/28 09:00:11;;;;;;;1.20;1.00;;;;;;;22.18;nan;100068.00;4986824;28;20041;-79
2023/08/28 09:02:37;;;;;;;1.83;1.35;;;;;;;22.20;nan;100081.94;4988554;28;20056;-80
2023/08/28 09:05:03;;;;;;;1.83;1.40;;;;;;;22.20;nan;100089.84;4989718;28;20502;-80
2023/08/28 09:07:29;;;;;;;2.30;1.38;;;;;;;22.21;nan;100080.13;4985065;28;20038;-80
2023/08/28 09:09:54;;;;;;;1.30;1.20;;;;;;;22.19;nan;100074.97;4968141;28;20854;-80
2023/08/28 09:12:19;;;;;;;3.72;1.20;;;;;;;22.19;nan;100088.19;4986891;28;20100;-79
2023/08/28 09:14:46;;;;;;;1.52;1.42;;;;;;;22.17;nan;100084.00;4989612;28;20022;-79
2023/08/28 09:17:11;;;;;;;3.08;1.40;;;;;;;22.16;nan;100087.59;4981699;28;20045;-80
2023/08/28 09:19:37;;;;;;;2.10;1.20;;;;;;;22.16;nan;100088.44;4983012;28;20041;-78
2023/08/28 09:22:03;;;;;;;2.72;1.20;;;;;;;22.17;nan;100089.28;4985430;28;20692;-76
2023/08/28 09:24:29;;;;;;;2.05;1.13;;;;;;;22.19;nan;100103.22;4987773;28;20662;-76
2023/08/28 09:26:55;;;;;;;2.97;1.30;;;;;;;22.19;nan;100106.69;4967972;28;20047;-76
2023/08/28 09:29:22;;;;;;;2.15;1.35;;;;;;;22.18;nan;100109.47;4982948;28;20054;-76
2023/08/28 09:31:48;;;;;;;3.20;1.27;;;;;;;22.17;nan;100100.69;4984417;28;20045;-76
2023/08/28 09:34:13;;;;;;;3.00;1.42;;;;;;;22.15;nan;100101.81;4988958;28;20449;-76
2023/08/28 09:36:43;;;;;;;1.15;1.08;;;;;;;22.15;nan;100102.63;4986906;28;20107;-76
2023/08/28 09:39:12;;;;;;;1.40;1.30;;;;;;;22.13;nan;100101.94;4983371;28;20517;-76
2023/08/28 09:41:48;;;;;;;4.43;1.25;;;;;;;22.12;nan;100113.50;4980773;28;20483;-77
2023/08/28 09:44:15;;;;;;;1.98;1.20;;;;;;;22.11;nan;100108.31;4990134;28;20033;-77
2023/08/28 09:46:42;;;;;;;2.17;1.10;;;;;;;22.12;nan;100107.34;4985737;28;20042;-78
2023/08/28 09:49:09;;;;;;;2.15;1.10;;;;;;;22.13;nan;100094.00;4981398;28;20026;-77
2023/08/28 09:51:45;;;;;;;3.25;1.50;;;;;;;22.17;nan;100099.84;4982681;28;20837;-77
2023/08/28 09:54:12;;;;;;;2.63;1.20;;;;;;;22.17;nan;100115.72;4989396;28;20036;-77
2023/08/28 09:56:38;;;;;;;2.45;1.27;;;;;;;22.16;nan;100114.03;4985263;28;20065;-78
2023/08/28 09:59:04;;;;;;;1.88;1.33;;;;;;;22.19;nan;100121.72;4982564;28;21603;-77
2023/08/28 10:01:34;;;;;;;1.67;1.10;;;;;;;22.19;nan;100112.00;4966444;28;20037;-76
2023/08/28 10:04:02;;;;;;;1.30;1.15;;;;;;;22.21;nan;100109.19;4986365;28;20058;-77
2023/08/28 10:06:29;;;;;;;1.17;1.08;;;;;;;22.18;nan;100105.03;4986274;28;20026;-77
2023/08/28 10:08:58;;;;;;;1.08;1.05;;;;;;;22.20;nan;100104.88;4981797;28;20026;-75
2023/08/28 10:11:29;;;;;;;3.50;1.33;;;;;;;22.20;nan;100100.44;4982103;28;20040;-76
2023/08/28 10:13:55;;;;;;;1.83;1.20;;;;;;;22.22;nan;100103.78;4989942;28;20033;-77
2023/08/28 10:16:24;;;;;;;1.20;1.10;;;;;;;22.22;nan;100092.34;4986344;28;20030;-77
2023/08/28 10:18:51;;;;;;;;;;;;;;;22.25;nan;100080.69;4982226;28;20092;-77
2023/08/28 10:21:17;;;;;;;2.30;1.15;;;;;;;22.26;nan;100071.78;4983256;28;19972;-76
2023/08/28 10:23:43;;;;;;;1.33;1.15;;;;;;;22.26;nan;100072.63;4988377;28;20117;-77
2023/08/28 10:26:09;;;;;;;2.55;1.35;;;;;;;22.29;nan;100066.22;4984812;28;20042;-76
2023/08/28 10:28:35;;;;;;;2.67;1.30;;;;;;;22.27;nan;100058.41;4983297;28;20042;-77
2023/08/28 10:31:03;;;;;;;3.10;1.30;;;;;;;22.29;nan;100058.28;4980702;28;20048;-75
2023/08/28 10:33:29;;;;;;;1.70;1.35;;;;;;;22.31;nan;100054.53;4978425;28;20057;-76
2023/08/28 10:35:55;;;;;;;2.17;1.45;;;;;;;22.33;nan;100041.19;4986957;28;20041;-76
2023/08/28 10:38:21;;;;;;;2.78;1.02;;;;;;;22.31;nan;100043.97;4981905;28;20029;-75
2023/08/28 10:40:48;;;;;;;2.45;1.50;;;;;;;22.33;nan;100043.81;4982242;28;20037;-76
2023/08/28 10:43:13;;;;;;;2.28;1.20;;;;;;;22.33;nan;100043.81;4990668;28;20048;-75
2023/08/28 10:45:40;;;;;;;2.17;1.05;;;;;;;22.34;nan;100038.38;4991275;28;20052;-75
2023/08/28 10:48:06;;;;;;;1.90;1.30;;;;;;;22.35;nan;100040.09;4982426;28;20742;-76
2023/08/28 10:50:38;;;;;;;1.65;1.30;;;;;;;22.36;nan;100039.09;4980735;28;20030;-76
2023/08/28 10:53:04;;;;;;;1.80;1.23;;;;;;;22.36;nan;100036.47;4986023;28;20137;-76
2023/08/28 10:55:29;;;;;;;2.03;1.23;;;;;;;22.36;nan;100033.81;4985476;28;20093;-76
2023/08/28 10:58:00;;;;;;;1.38;1.20;;;;;;;22.36;nan;100025.06;4980994;28;20076;-76
2023/08/28 11:00:25;;;;;;;1.95;1.40;;;;;;;22.36;nan;100025.88;4981235;28;20044;-76
2023/08/28 11:03:08;;;;;;;5.25;1.50;;;;;;;22.36;nan;100028.53;4983112;28;20762;-77
2023/08/28 11:05:34;;;;;;;3.47;1.17;;;;;;;22.36;nan;100022.41;4981168;28;20713;-76
2023/08/28 11:08:04;;;;;;;2.17;1.23;;;;;;;22.36;nan;100009.19;4979051;28;20088;-75
2023/08/28 11:10:30;;;;;;;1.52;1.30;;;;;;;22.37;nan;100006.38;4980669;28;20425;-77
2023/08/28 11:13:02;;;;;;;1.85;1.48;;;;;;;22.40;nan;100006.09;4971642;28;20722;-75
2023/08/28 11:15:29;;;;;;;3.05;1.40;;;;;;;22.41;nan;100001.69;4991842;28;20065;-77
2023/08/28 11:18:27;;;;;;;1.20;1.10;;;;;;;22.41;nan;100009.59;4982361;28;20866;-76
2023/08/28 11:21:01;;;;;;;3.75;1.08;;;;;;;22.42;nan;100006.00;4980158;28;20168;-76
2023/08/28 11:23:33;;;;;;;2.42;1.20;;;;;;;22.42;nan;100000.69;4993057;28;20033;-76
2023/08/28 11:26:19;;;;;;;2.53;1.15;;;;;;;22.42;nan;99993.59;4990580;28;20030;-76
2023/08/28 11:28:47;;;;;;;2.78;1.40;;;;;;;22.42;nan;100001.53;4975069;28;20057;-77
2023/08/28 11:31:12;;;;;;;1.20;1.10;;;;;;;22.41;nan;99993.75;4980742;28;20049;-77
2023/08/28 11:33:42;;;;;;;1.52;1.30;;;;;;;22.41;nan;99994.56;4989056;28;20398;-77
2023/08/28 11:36:10;;;;;;;3.05;1.50;;;;;;;22.42;nan;99990.13;4986629;28;20034;-76
2023/08/28 11:38:36;;;;;;;3.70;1.27;;;;;;;22.42;nan;99988.31;4980784;28;20049;-76
2023/08/28 11:41:04;;;;;;;1.88;1.30;;;;;;;22.41;nan;99980.50;4981559;28;20180;-76
2023/08/28 11:43:34;;;;;;;2.15;1.30;;;;;;;22.42;nan;99990.94;4980663;28;20475;-77
2023/08/28 11:45:59;;;;;;;2.10;1.45;;;;;;;22.43;nan;99989.97;4985069;28;20080;-76
2023/08/28 11:48:24;;;;;;;2.15;1.50;;;;;;;22.43;nan;99989.97;4979533;28;20030;-78
2023/08/28 11:50:57;;;;;;;2.90;1.63;;;;;;;22.42;nan;99988.31;4979123;28;20030;-78
2023/08/28 11:53:40;;;;;;;3.40;1.40;;;;;;;22.37;nan;99984.41;4983806;28;20034;-77